createdAt,value
2018-09-14T00:02:21.415Z,6.20
2018-09-14T00:04:49.880Z,6.30
2018-09-14T00:07:18.503Z,5.50
2018-09-14T00:09:47.304Z,6.33
2018-09-14T00:12:15.865Z,6.20
2018-09-14T00:14:44.495Z,5.67
2018-09-14T00:17:13.056Z,5.20
2018-09-14T00:19:41.207Z,5.93
2018-09-14T00:22:09.791Z,5.90
2018-09-14T00:24:37.885Z,5.60
2018-09-14T00:27:05.989Z,5.80
2018-09-14T00:29:34.327Z,6.10
2018-09-14T00:32:02.788Z,6.00
2018-09-14T00:34:31.165Z,5.20
2018-09-14T00:37:00.275Z,6.40
2018-09-14T00:39:28.919Z,5.37
2018-09-14T00:41:57.224Z,5.07
2018-09-14T00:44:25.544Z,5.80
2018-09-14T00:46:53.576Z,5.00
2018-09-14T00:49:21.697Z,6.30
2018-09-14T00:51:50.120Z,6.63
2018-09-14T00:54:18.068Z,6.87
2018-09-14T00:56:46.399Z,6.67
2018-09-14T00:59:14.556Z,5.70
2018-09-14T01:01:44.084Z,6.33
2018-09-14T01:04:12.097Z,6.50
2018-09-14T01:06:40.543Z,6.57
2018-09-14T01:09:17.957Z,6.07
2018-09-14T01:11:50.853Z,7.10
2018-09-14T01:14:19.651Z,5.90
2018-09-14T01:16:48.168Z,5.97
2018-09-14T01:19:16.357Z,6.10
2018-09-14T01:21:45.418Z,5.90
2018-09-14T01:24:13.990Z,5.60
2018-09-14T01:26:42.153Z,5.73
2018-09-14T01:29:10.438Z,6.33
2018-09-14T01:31:38.564Z,6.10
2018-09-14T01:34:06.952Z,6.40
2018-09-14T01:36:35.025Z,6.30
2018-09-14T01:39:05.379Z,6.40
2018-09-14T01:41:33.427Z,6.80
2018-09-14T01:44:01.540Z,5.30
2018-09-14T01:46:29.684Z,5.50
2018-09-14T01:48:57.807Z,6.43
2018-09-14T01:51:25.844Z,5.90
2018-09-14T01:53:53.934Z,8.03
2018-09-14T01:56:22.020Z,7.33
2018-09-14T01:58:50.031Z,7.87
2018-09-14T02:01:18.098Z,8.70
2018-09-14T02:03:46.144Z,8.37
2018-09-14T02:06:14.302Z,7.10
2018-09-14T02:08:42.536Z,7.57
2018-09-14T02:11:10.836Z,7.97
2018-09-14T02:13:38.859Z,7.77
2018-09-14T02:16:06.914Z,8.53
2018-09-14T02:18:34.949Z,8.33
2018-09-14T02:21:03.024Z,7.90
2018-09-14T02:23:31.093Z,7.93
2018-09-14T02:25:59.269Z,7.20
2018-09-14T02:28:27.360Z,6.93
2018-09-14T02:30:55.414Z,7.43
2018-09-14T02:33:23.427Z,7.60
2018-09-14T02:35:51.394Z,7.30
2018-09-14T02:38:19.467Z,7.17
2018-09-14T02:40:47.787Z,7.10
2018-09-14T02:43:15.807Z,7.00
2018-09-14T02:45:43.889Z,7.10
2018-09-14T02:48:11.938Z,7.20
2018-09-14T02:50:39.976Z,6.30
2018-09-14T02:53:08.031Z,7.13
2018-09-14T02:55:36.219Z,7.33
2018-09-14T02:58:04.362Z,7.20
2018-09-14T03:00:32.424Z,6.80
2018-09-14T03:03:00.527Z,7.17
2018-09-14T03:05:28.596Z,7.40
2018-09-14T03:07:56.749Z,6.90
2018-09-14T03:10:24.897Z,6.97
2018-09-14T03:12:52.977Z,7.70
2018-09-14T03:15:21.027Z,7.83
2018-09-14T03:17:49.071Z,8.47
2018-09-14T03:20:17.098Z,7.43
2018-09-14T03:22:45.162Z,7.30
2018-09-14T03:25:13.384Z,8.23
2018-09-14T03:27:41.558Z,8.60
2018-09-14T03:30:11.093Z,8.73
2018-09-14T03:32:39.366Z,9.40
2018-09-14T03:35:07.486Z,8.70
2018-09-14T03:37:36.222Z,8.97
2018-09-14T03:40:04.700Z,7.90
2018-09-14T03:42:34.190Z,8.50
2018-09-14T03:45:03.009Z,6.90
2018-09-14T03:47:31.066Z,8.30
2018-09-14T03:49:59.108Z,8.70
2018-09-14T03:52:27.132Z,8.70
2018-09-14T03:54:55.275Z,8.80
2018-09-14T03:57:23.541Z,8.50
2018-09-14T03:59:51.561Z,9.50
2018-09-14T04:02:19.663Z,10.63
2018-09-14T04:04:47.740Z,10.10
2018-09-14T04:07:15.907Z,10.10
2018-09-14T04:09:44.155Z,10.30
2018-09-14T04:12:12.248Z,10.30
2018-09-14T04:14:40.375Z,11.00
2018-09-14T04:17:08.472Z,10.50
2018-09-14T04:19:36.661Z,9.63
2018-09-14T04:22:04.802Z,10.07
2018-09-14T04:24:32.855Z,10.67
2018-09-14T04:27:00.962Z,10.80
2018-09-14T04:29:29.339Z,10.40
2018-09-14T04:31:57.390Z,10.47
2018-09-14T04:34:25.733Z,9.50
2018-09-14T04:36:53.785Z,10.90
2018-09-14T04:39:21.879Z,10.50
2018-09-14T04:41:49.950Z,10.40
2018-09-14T04:44:18.090Z,8.80
2018-09-14T04:46:46.190Z,10.27
2018-09-14T04:49:14.365Z,9.57
2018-09-14T04:51:42.379Z,9.87
2018-09-14T04:54:10.484Z,10.10
2018-09-14T04:56:38.652Z,10.90
2018-09-14T04:59:06.762Z,10.70
2018-09-14T05:01:34.820Z,11.97
2018-09-14T05:04:03.200Z,10.90
2018-09-14T05:06:31.272Z,12.00
2018-09-14T05:08:59.302Z,11.30
2018-09-14T05:11:27.394Z,11.70
2018-09-14T05:13:55.495Z,11.07
2018-09-14T05:16:23.633Z,10.17
2018-09-14T05:18:51.777Z,11.10
2018-09-14T05:21:20.132Z,9.50
2018-09-14T05:23:48.617Z,10.97
2018-09-14T05:26:16.769Z,11.83
2018-09-14T05:28:44.909Z,11.37
2018-09-14T05:31:13.284Z,11.97
2018-09-14T05:33:41.504Z,11.83
2018-09-14T05:36:09.882Z,10.70
2018-09-14T05:38:38.456Z,10.93
2018-09-14T05:41:06.938Z,11.17
2018-09-14T05:43:35.376Z,11.40
2018-09-14T05:46:05.045Z,10.70
2018-09-14T05:48:33.133Z,11.30
2018-09-14T05:51:01.246Z,11.10
2018-09-14T05:53:29.663Z,10.50
2018-09-14T05:55:57.685Z,11.07
2018-09-14T05:58:25.834Z,9.73
2018-09-14T06:00:54.638Z,10.90
2018-09-14T06:03:22.757Z,12.07
2018-09-14T06:05:51.009Z,10.33
2018-09-14T06:08:19.164Z,10.20
2018-09-14T06:10:47.272Z,10.67
2018-09-14T06:13:16.090Z,9.83
2018-09-14T06:15:44.188Z,10.40
2018-09-14T06:18:12.232Z,10.70
2018-09-14T06:20:40.286Z,10.87
2018-09-14T06:23:08.390Z,9.83
2018-09-14T06:25:36.450Z,9.90
2018-09-14T06:28:04.734Z,9.13
2018-09-14T06:30:32.765Z,10.97
2018-09-14T06:33:00.815Z,11.07
2018-09-14T06:35:28.957Z,11.37
2018-09-14T06:37:57.055Z,10.87
2018-09-14T06:40:25.084Z,9.90
2018-09-14T06:42:53.175Z,11.63
2018-09-14T06:45:21.294Z,10.70
2018-09-14T06:47:49.349Z,10.80
2018-09-14T06:50:17.421Z,11.00
2018-09-14T06:52:45.596Z,10.43
2018-09-14T06:55:13.694Z,11.07
2018-09-14T06:57:41.713Z,11.43
2018-09-14T07:00:10.116Z,11.77
2018-09-14T07:02:38.173Z,11.23
2018-09-14T07:05:06.262Z,11.17
2018-09-14T07:07:34.346Z,11.13
2018-09-14T07:10:02.386Z,11.20
2018-09-14T07:12:30.510Z,10.90
2018-09-14T07:14:58.632Z,11.17
2018-09-14T07:17:26.712Z,10.97
2018-09-14T07:19:54.824Z,11.23
2018-09-14T07:22:22.917Z,10.53
2018-09-14T07:24:51.223Z,10.97
2018-09-14T07:27:19.048Z,11.47
2018-09-14T07:29:47.317Z,10.43
2018-09-14T07:32:15.443Z,10.60
2018-09-14T07:34:43.572Z,10.60
2018-09-14T07:37:11.739Z,11.40
2018-09-14T07:39:39.864Z,9.40
2018-09-14T07:42:07.934Z,10.83
2018-09-14T07:44:35.987Z,10.20
2018-09-14T07:47:04.438Z,10.03
2018-09-14T07:49:32.588Z,11.50
2018-09-14T07:52:00.688Z,10.63
2018-09-14T07:54:28.889Z,10.73
2018-09-14T07:56:57.016Z,10.17
2018-09-14T07:59:25.102Z,11.00
2018-09-14T08:01:53.177Z,11.27
2018-09-14T08:04:21.286Z,10.07
2018-09-14T08:06:49.419Z,11.93
2018-09-14T08:09:17.744Z,10.97
2018-09-14T08:11:46.338Z,10.10
2018-09-14T08:14:14.501Z,13.30
2018-09-14T08:16:42.640Z,10.07
2018-09-14T08:19:10.848Z,10.60
2018-09-14T08:21:39.028Z,10.60
2018-09-14T08:24:07.309Z,11.50
2018-09-14T08:26:35.415Z,10.77
2018-09-14T08:29:03.521Z,11.63
2018-09-14T08:31:31.622Z,11.00
2018-09-14T08:33:59.763Z,10.70
2018-09-14T08:36:27.903Z,10.43
2018-09-14T08:38:55.984Z,12.53
2018-09-14T08:41:24.105Z,12.67
2018-09-14T08:43:52.295Z,10.40
2018-09-14T08:46:20.535Z,10.97
2018-09-14T08:48:48.632Z,9.97
2018-09-14T08:51:16.719Z,10.63
2018-09-14T08:53:44.911Z,9.70
2018-09-14T08:56:12.930Z,10.50
2018-09-14T08:58:41.123Z,10.70
2018-09-14T09:01:09.398Z,10.83
2018-09-14T09:03:37.524Z,9.73
2018-09-14T09:06:05.601Z,8.87
2018-09-14T09:08:33.807Z,10.07
2018-09-14T09:11:02.001Z,9.97
2018-09-14T09:13:30.145Z,8.80
2018-09-14T09:15:58.322Z,10.60
2018-09-14T09:18:26.554Z,10.00
2018-09-14T09:20:54.699Z,10.07
2018-09-14T09:23:22.831Z,9.80
2018-09-14T09:25:50.941Z,10.17
2018-09-14T09:28:19.065Z,10.47
2018-09-14T09:30:47.164Z,11.00
2018-09-14T09:33:15.296Z,10.27
2018-09-14T09:35:43.448Z,9.60
2018-09-14T09:38:11.685Z,9.37
2018-09-14T09:40:39.918Z,8.33
2018-09-14T09:43:14.680Z,8.10
2018-09-14T09:45:42.718Z,7.80
2018-09-14T09:48:10.822Z,8.10
2018-09-14T09:50:39.113Z,9.23
2018-09-14T09:53:07.360Z,6.40
2018-09-14T09:55:36.141Z,7.30
2018-09-14T09:58:04.306Z,6.50
2018-09-14T10:00:37.971Z,6.87
2018-09-14T10:03:11.762Z,6.83
2018-09-14T10:05:45.592Z,6.20
2018-09-14T10:08:14.477Z,6.67
2018-09-14T10:10:42.715Z,6.17
2018-09-14T10:13:10.929Z,6.40
2018-09-14T10:15:39.087Z,7.10
2018-09-14T10:18:07.220Z,6.70
2018-09-14T10:20:35.368Z,5.90
2018-09-14T10:23:03.484Z,5.10
2018-09-14T10:25:31.674Z,5.63
2018-09-14T10:27:59.872Z,6.07
2018-09-14T10:30:27.997Z,5.77
2018-09-14T10:32:56.348Z,4.97
2018-09-14T10:35:24.472Z,4.07
2018-09-14T10:37:52.539Z,3.73
2018-09-14T10:40:20.655Z,3.80
2018-09-14T10:42:48.790Z,4.27
2018-09-14T10:45:16.825Z,4.33
2018-09-14T10:47:45.016Z,4.87
2018-09-14T10:50:13.173Z,4.00
2018-09-14T10:52:41.288Z,4.47
2018-09-14T10:55:09.444Z,3.73
2018-09-14T10:57:37.668Z,4.33
2018-09-14T11:00:06.021Z,3.90
2018-09-14T11:02:34.177Z,4.03
2018-09-14T11:05:02.440Z,3.60
2018-09-14T11:07:30.551Z,4.17
2018-09-14T11:09:58.741Z,3.90
2018-09-14T11:12:26.774Z,4.30
2018-09-14T11:14:54.838Z,3.97
2018-09-14T11:17:23.091Z,4.03
2018-09-14T11:19:51.357Z,3.87
2018-09-14T11:22:19.707Z,3.73
2018-09-14T11:24:48.019Z,3.77
2018-09-14T11:27:16.142Z,3.53
2018-09-14T11:29:44.225Z,3.30
2018-09-14T11:32:12.433Z,4.40
2018-09-14T11:34:40.547Z,3.20
2018-09-14T11:37:08.781Z,3.27
2018-09-14T11:39:36.910Z,3.50
2018-09-14T11:42:05.866Z,3.27
2018-09-14T11:44:34.106Z,3.70
2018-09-14T11:47:02.279Z,3.07
2018-09-14T11:49:30.471Z,3.60
2018-09-14T11:51:58.752Z,3.27
2018-09-14T11:54:26.970Z,2.50
2018-09-14T11:56:55.115Z,2.73
2018-09-14T11:59:23.754Z,2.60
2018-09-14T12:01:51.934Z,2.33
2018-09-14T12:04:20.357Z,2.60
2018-09-14T12:06:48.620Z,3.17
2018-09-14T12:09:16.825Z,3.27
2018-09-14T12:11:45.040Z,3.00
2018-09-14T12:14:13.306Z,2.77
2018-09-14T12:16:41.573Z,2.57
2018-09-14T12:19:09.695Z,2.80
2018-09-14T12:21:37.839Z,3.40
2018-09-14T12:24:06.030Z,3.20
2018-09-14T12:26:34.197Z,3.60
2018-09-14T12:29:02.460Z,3.10
2018-09-14T12:31:30.807Z,3.03
2018-09-14T12:33:59.079Z,2.90
2018-09-14T12:36:27.216Z,2.77
2018-09-14T12:38:55.374Z,3.50
2018-09-14T12:41:23.472Z,3.17
2018-09-14T12:43:51.657Z,3.00
2018-09-14T12:46:19.844Z,3.10
2018-09-14T12:48:48.162Z,3.37
2018-09-14T12:51:16.297Z,3.57
2018-09-14T12:53:44.449Z,2.97
2018-09-14T12:56:12.677Z,3.87
2018-09-14T12:58:40.865Z,2.97
2018-09-14T13:01:09.047Z,4.10
2018-09-14T13:03:37.252Z,3.30
2018-09-14T13:06:05.379Z,3.00
2018-09-14T13:08:33.458Z,2.83
2018-09-14T13:11:01.613Z,2.90
2018-09-14T13:13:29.867Z,3.00
2018-09-14T13:15:58.065Z,2.80
2018-09-14T13:18:26.259Z,3.10
2018-09-14T13:20:54.431Z,3.00
2018-09-14T13:23:23.066Z,2.70
2018-09-14T13:25:51.234Z,2.50
2018-09-14T13:28:19.456Z,2.70
2018-09-14T13:30:47.626Z,2.80
2018-09-14T13:33:17.147Z,2.83
2018-09-14T13:35:46.180Z,3.00
2018-09-14T13:38:14.711Z,3.20
2018-09-14T13:40:44.353Z,2.73
2018-09-14T13:43:12.624Z,2.80
2018-09-14T13:45:41.194Z,3.43
2018-09-14T13:48:09.502Z,3.00
2018-09-14T13:50:37.715Z,2.70
2018-09-14T13:53:06.069Z,3.10
2018-09-14T13:55:34.280Z,3.17
2018-09-14T13:58:02.722Z,2.80
2018-09-14T14:00:31.108Z,2.80
2018-09-14T14:02:59.316Z,3.00
2018-09-14T14:05:28.263Z,2.70
2018-09-14T14:07:56.394Z,2.90
2018-09-14T14:10:24.871Z,3.13
2018-09-14T14:12:53.014Z,2.77
2018-09-14T14:15:21.723Z,2.80
2018-09-14T14:17:49.949Z,3.53
2018-09-14T14:20:18.036Z,3.20
2018-09-14T14:22:46.118Z,3.30
2018-09-14T14:25:14.352Z,3.60
2018-09-14T14:27:42.566Z,2.93
2018-09-14T14:30:11.140Z,2.90
2018-09-14T14:32:39.379Z,2.60
2018-09-14T14:35:08.151Z,2.50
2018-09-14T14:37:36.472Z,2.47
2018-09-14T14:40:04.788Z,2.57
2018-09-14T14:42:33.755Z,2.73
2018-09-14T14:45:02.200Z,2.40
2018-09-14T14:47:30.544Z,2.37
2018-09-14T14:49:59.124Z,2.33
2018-09-14T14:52:27.353Z,2.40
2018-09-14T14:54:57.034Z,2.90
2018-09-14T14:57:25.173Z,2.60
2018-09-14T14:59:55.628Z,2.20
2018-09-14T15:02:24.056Z,2.97
2018-09-14T15:04:53.057Z,2.40
2018-09-14T15:07:21.526Z,2.60
2018-09-14T15:09:50.320Z,2.37
2018-09-14T15:12:19.449Z,2.57
2018-09-14T15:14:47.954Z,2.33
2018-09-14T15:17:16.510Z,2.60
2018-09-14T15:19:44.718Z,3.93
2018-09-14T15:22:13.598Z,2.97
2018-09-14T15:24:42.888Z,3.20
2018-09-14T15:27:11.224Z,2.67
2018-09-14T15:29:39.453Z,2.27
2018-09-14T15:32:08.968Z,2.60
2018-09-14T15:34:37.385Z,2.10
2018-09-14T15:37:05.977Z,2.17
2018-09-14T15:39:34.264Z,2.50
2018-09-14T15:42:04.131Z,2.50
2018-09-14T15:44:32.284Z,2.73
2018-09-14T15:47:00.688Z,2.87
2018-09-14T15:49:29.091Z,2.53
2018-09-14T15:51:57.265Z,2.60
2018-09-14T15:54:25.375Z,2.27
2018-09-14T15:56:53.768Z,2.43
2018-09-14T15:59:22.113Z,2.93
2018-09-14T16:01:50.315Z,3.00
2018-09-14T16:04:18.676Z,2.80
2018-09-14T16:06:47.055Z,2.53
2018-09-14T16:09:15.383Z,2.50
2018-09-14T16:11:43.607Z,2.17
2018-09-14T16:14:11.878Z,2.60
2018-09-14T16:16:40.172Z,2.60
2018-09-14T16:19:08.354Z,2.33
2018-09-14T16:21:36.717Z,2.97
2018-09-14T16:24:05.094Z,2.60
2018-09-14T16:26:33.532Z,2.37
2018-09-14T16:29:01.767Z,2.93
2018-09-14T16:31:29.951Z,2.40
2018-09-14T16:33:58.254Z,3.20
2018-09-14T16:36:26.540Z,2.50
2018-09-14T16:38:54.793Z,2.63
2018-09-14T16:41:23.061Z,2.87
2018-09-14T16:43:51.256Z,2.70
2018-09-14T16:46:19.479Z,2.77
2018-09-14T16:48:47.881Z,2.87
2018-09-14T16:51:16.019Z,2.50
2018-09-14T16:53:44.288Z,2.57
2018-09-14T16:56:12.706Z,2.87
2018-09-14T16:58:40.893Z,2.90
2018-09-14T17:01:09.078Z,2.80
2018-09-14T17:03:37.289Z,3.50
2018-09-14T17:06:05.538Z,2.80
2018-09-14T17:08:33.863Z,2.97
2018-09-14T17:11:02.215Z,2.47
2018-09-14T17:13:30.596Z,3.50
2018-09-14T17:15:59.470Z,3.40
2018-09-14T17:18:27.982Z,2.73
2018-09-14T17:20:56.258Z,2.87
2018-09-14T17:23:24.440Z,3.30
2018-09-14T17:25:52.757Z,3.27
2018-09-14T17:28:20.968Z,3.27
2018-09-14T17:30:49.230Z,2.90
2018-09-14T17:33:17.438Z,2.40
2018-09-14T17:35:46.047Z,3.20
2018-09-14T17:38:14.379Z,3.33
2018-09-14T17:40:42.584Z,3.40
2018-09-14T17:43:10.683Z,2.97
2018-09-14T17:45:39.307Z,3.00
2018-09-14T17:48:08.243Z,2.90
2018-09-14T17:50:36.673Z,3.27
2018-09-14T17:53:05.040Z,3.13
2018-09-14T17:55:33.418Z,3.87
2018-09-14T17:58:02.220Z,3.40
2018-09-14T18:00:31.331Z,3.10
2018-09-14T18:02:59.558Z,3.00
2018-09-14T18:05:27.829Z,3.50
2018-09-14T18:07:56.044Z,3.60
2018-09-14T18:10:24.591Z,2.90
2018-09-14T18:12:54.354Z,3.03
2018-09-14T18:15:22.639Z,3.03
2018-09-14T18:17:50.846Z,3.00
2018-09-14T18:20:19.779Z,3.40
2018-09-14T18:22:48.105Z,3.30
2018-09-14T18:25:16.446Z,3.67
2018-09-14T18:27:44.722Z,3.20
2018-09-14T18:30:12.964Z,2.77
2018-09-14T18:32:41.257Z,3.30
2018-09-14T18:35:09.518Z,3.07
2018-09-14T18:37:38.212Z,2.83
2018-09-14T18:40:06.551Z,3.20
2018-09-14T18:42:35.990Z,3.53
2018-09-14T18:45:04.425Z,3.20
2018-09-14T18:47:32.889Z,2.93
2018-09-14T18:50:01.386Z,3.07
2018-09-14T18:52:29.672Z,2.83
2018-09-14T18:54:58.167Z,3.30
2018-09-14T18:57:26.473Z,3.37
2018-09-14T18:59:55.316Z,3.10
2018-09-14T19:02:23.539Z,3.07
2018-09-14T19:04:51.855Z,3.30
2018-09-14T19:07:21.011Z,3.20
2018-09-14T19:09:50.093Z,2.87
2018-09-14T19:12:18.359Z,3.50
2018-09-14T19:14:48.289Z,2.90
2018-09-14T19:17:16.507Z,2.87
2018-09-14T19:19:44.933Z,3.43
2018-09-14T19:22:13.220Z,2.57
2018-09-14T19:24:41.815Z,2.97
2018-09-14T19:27:10.536Z,3.30
2018-09-14T19:29:40.068Z,4.00
2018-09-14T19:32:08.426Z,2.90
2018-09-14T19:34:36.808Z,2.53
2018-09-14T19:37:05.669Z,4.20
2018-09-14T19:39:35.344Z,3.60
2018-09-14T19:42:03.707Z,3.47
2018-09-14T19:44:33.485Z,3.57
2018-09-14T19:47:02.078Z,3.43
2018-09-14T19:49:30.481Z,3.60
2018-09-14T19:51:59.028Z,3.43
2018-09-14T19:54:28.047Z,3.63
2018-09-14T19:56:56.976Z,3.50
2018-09-14T19:59:25.202Z,3.40
2018-09-14T20:01:54.432Z,3.37
2018-09-14T20:04:22.722Z,3.10
2018-09-14T20:06:51.534Z,3.73
2018-09-14T20:09:20.462Z,3.80
2018-09-14T20:11:48.742Z,4.30
2018-09-14T20:14:17.108Z,4.13
2018-09-14T20:16:45.852Z,3.63
2018-09-14T20:19:14.563Z,3.73
2018-09-14T20:21:42.966Z,3.80
2018-09-14T20:24:11.335Z,3.80
2018-09-14T20:26:39.767Z,4.20
2018-09-14T20:29:08.034Z,3.90
2018-09-14T20:31:37.144Z,4.10
2018-09-14T20:34:06.004Z,3.70
2018-09-14T20:36:36.072Z,4.00
2018-09-14T20:39:08.890Z,3.67
2018-09-14T20:41:37.518Z,4.40
2018-09-14T20:44:07.137Z,4.23
2018-09-14T20:46:35.552Z,4.20
2018-09-14T20:49:03.898Z,4.63
2018-09-14T20:54:16.307Z,3.70
2018-09-14T20:56:44.535Z,4.20
2018-09-14T20:59:13.070Z,3.57
2018-09-14T21:01:41.510Z,3.60
2018-09-14T21:04:10.809Z,3.93
2018-09-14T21:06:39.322Z,3.57
2018-09-14T21:09:09.278Z,3.97
2018-09-14T21:11:38.453Z,3.20
2018-09-14T21:14:08.077Z,3.27
2018-09-14T21:16:36.369Z,3.60
2018-09-14T21:19:04.776Z,3.90
2018-09-14T21:21:33.420Z,4.00
2018-09-14T21:24:01.805Z,3.63
2018-09-14T21:26:30.291Z,3.97
2018-09-14T21:28:58.609Z,3.57
2018-09-14T21:31:27.148Z,3.33
2018-09-14T21:33:55.373Z,3.83
2018-09-14T21:36:23.665Z,3.50
2018-09-14T21:38:51.860Z,4.03
2018-09-14T21:41:19.997Z,3.97
2018-09-14T21:43:48.157Z,4.53
2018-09-14T21:46:16.375Z,4.87
2018-09-14T21:48:44.615Z,4.17
2018-09-14T21:51:12.803Z,4.63
2018-09-14T21:53:41.802Z,4.50
2018-09-14T21:56:09.937Z,4.70
2018-09-14T21:58:38.321Z,4.40
2018-09-14T22:01:13.845Z,4.73
2018-09-14T22:03:46.561Z,4.50
2018-09-14T22:06:15.075Z,5.43
2018-09-14T22:08:43.533Z,5.33
2018-09-14T22:11:11.909Z,3.90
2018-09-14T22:13:40.665Z,4.50
2018-09-14T22:16:08.914Z,4.90
2018-09-14T22:18:38.235Z,4.33
2018-09-14T22:21:06.946Z,4.73
2018-09-14T22:23:35.793Z,4.50
2018-09-14T22:26:03.998Z,4.70
2018-09-14T22:28:32.319Z,5.00
2018-09-14T22:31:00.477Z,4.60
2018-09-14T22:33:28.680Z,4.77
2018-09-14T22:35:56.823Z,5.40
2018-09-14T22:38:25.176Z,5.77
2018-09-14T22:40:53.481Z,5.83
2018-09-14T22:43:22.102Z,5.40
2018-09-14T22:45:50.655Z,5.70
2018-09-14T22:48:19.511Z,5.90
2018-09-14T22:50:47.709Z,5.60
2018-09-14T22:53:16.055Z,5.20
2018-09-14T22:55:44.133Z,5.60
2018-09-14T22:58:12.780Z,5.60
2018-09-14T23:00:46.421Z,5.23
2018-09-14T23:03:14.623Z,5.80
2018-09-14T23:05:43.055Z,4.83
2018-09-14T23:08:11.214Z,5.10
2018-09-14T23:10:39.557Z,4.87
2018-09-14T23:13:07.789Z,4.37
2018-09-14T23:15:36.886Z,5.23
2018-09-14T23:18:06.513Z,5.33
2018-09-14T23:23:15.404Z,4.50
2018-09-14T23:25:43.743Z,5.00
2018-09-14T23:28:11.865Z,5.20
2018-09-14T23:30:40.680Z,4.63
2018-09-14T23:33:09.217Z,5.63
2018-09-14T23:35:37.470Z,4.83
2018-09-14T23:38:05.657Z,5.20
2018-09-14T23:40:34.377Z,4.97
2018-09-14T23:43:02.472Z,4.53
2018-09-14T23:45:30.749Z,4.97
2018-09-14T23:47:58.830Z,4.73
2018-09-14T23:50:27.045Z,4.83
2018-09-14T23:52:55.299Z,4.57
2018-09-14T23:55:23.517Z,4.50
2018-09-14T23:57:51.570Z,3.70
